createdAt,value
2022-12-08T00:00:32.912Z,100145.28
2022-12-08T00:01:36.481Z,100141.84
2022-12-08T00:02:42.495Z,100152.22
2022-12-08T00:03:45.993Z,100135.59
2022-12-08T00:05:06.781Z,100142.66
2022-12-08T00:06:40.184Z,100140.03
2022-12-08T00:08:00.837Z,100132.97
2022-12-08T00:09:21.410Z,100126.69
2022-12-08T00:10:48.550Z,100132.78
2022-12-08T00:11:48.149Z,100127.38
2022-12-08T00:12:50.372Z,100131.00
2022-12-08T00:13:53.626Z,100125.72
2022-12-08T00:14:55.782Z,100126.41
2022-12-08T00:16:01.560Z,100130.00
2022-12-08T00:17:05.478Z,100122.09
2022-12-08T00:18:10.231Z,100122.94
2022-12-08T00:19:12.476Z,100120.13
2022-12-08T00:20:15.801Z,100122.75
2022-12-08T00:21:18.007Z,100119.13
2022-12-08T00:22:21.168Z,100122.59
2022-12-08T00:23:23.425Z,100123.44
2022-12-08T00:24:31.266Z,100123.28
2022-12-08T00:25:35.782Z,100118.34
2022-12-08T00:26:39.172Z,100120.47
2022-12-08T00:27:41.294Z,100125.75
2022-12-08T00:28:44.586Z,100120.31
2022-12-08T00:29:46.678Z,100118.50
2022-12-08T00:30:49.851Z,100110.44
2022-12-08T00:31:53.085Z,100113.06
2022-12-08T00:32:55.321Z,100119.19
2022-12-08T00:34:00.651Z,100113.91
2022-12-08T00:35:03.065Z,100110.28
2022-12-08T00:36:08.023Z,100113.75
2022-12-08T00:37:11.253Z,100104.00
2022-12-08T00:38:13.484Z,100103.03
2022-12-08T00:39:18.122Z,100096.28
2022-12-08T00:40:20.281Z,100095.94
2022-12-08T00:41:45.390Z,100095.13
2022-12-08T00:42:47.539Z,100097.44
2022-12-08T00:43:50.689Z,100102.53
2022-12-08T00:44:52.884Z,100102.38
2022-12-08T00:45:56.326Z,100103.06
2022-12-08T00:46:58.625Z,100095.16
2022-12-08T00:48:01.807Z,100090.53
2022-12-08T00:49:06.619Z,100095.66
2022-12-08T00:50:10.598Z,100092.50
2022-12-08T00:51:12.758Z,100090.88
2022-12-08T00:52:15.957Z,100091.53
2022-12-08T00:53:18.103Z,100091.38
2022-12-08T00:54:22.963Z,100087.75
2022-12-08T00:55:25.149Z,100083.13
2022-12-08T00:56:28.935Z,100087.56
2022-12-08T00:57:31.251Z,100083.97
2022-12-08T00:58:34.474Z,100086.28
2022-12-08T00:59:36.633Z,100082.81
2022-12-08T01:00:41.462Z,100078.38
2022-12-08T01:01:45.020Z,100081.00
2022-12-08T01:02:48.324Z,100087.91
2022-12-08T01:03:50.632Z,100085.94
2022-12-08T01:04:55.242Z,100085.94
2022-12-08T01:05:57.373Z,100083.13
2022-12-08T01:07:00.499Z,100088.41
2022-12-08T01:08:05.868Z,100082.97
2022-12-08T01:09:10.040Z,100082.81
2022-12-08T01:10:12.172Z,100083.63
2022-12-08T01:11:19.224Z,100075.72
2022-12-08T01:12:22.382Z,100084.47
2022-12-08T01:13:24.552Z,100069.47
2022-12-08T01:14:27.929Z,100077.38
2022-12-08T01:15:30.099Z,100073.75
2022-12-08T01:16:34.978Z,100075.41
2022-12-08T01:17:37.377Z,100075.41
2022-12-08T01:18:40.575Z,100075.22
2022-12-08T01:19:42.713Z,100068.16
2022-12-08T01:20:47.498Z,100073.25
2022-12-08T01:21:49.780Z,100074.88
2022-12-08T01:22:52.951Z,100073.91
2022-12-08T01:23:55.610Z,100075.56
2022-12-08T01:24:58.710Z,100071.13
2022-12-08T01:26:04.655Z,100070.13
2022-12-08T01:27:07.810Z,100077.84
2022-12-08T01:28:09.942Z,100068.13
2022-12-08T01:29:13.372Z,100067.31
2022-12-08T01:30:15.736Z,100068.97
2022-12-08T01:31:20.722Z,100061.91
2022-12-08T01:32:22.937Z,100073.06
2022-12-08T01:33:26.617Z,100059.91
2022-12-08T01:34:29.778Z,100056.28
2022-12-08T01:35:32.102Z,100058.75
2022-12-08T01:36:38.534Z,100066.66
2022-12-08T01:37:41.838Z,100061.22
2022-12-08T01:38:44.072Z,100054.16
2022-12-08T01:39:47.218Z,100062.06
2022-12-08T01:40:49.663Z,100055.59
2022-12-08T01:41:52.896Z,100053.97
2022-12-08T01:42:55.056Z,100052.00
2022-12-08T01:44:00.594Z,100058.91
2022-12-08T01:45:05.265Z,100053.63
2022-12-08T01:46:08.478Z,100055.28
2022-12-08T01:47:11.575Z,100050.00
2022-12-08T01:48:20.156Z,100050.81
2022-12-08T01:49:26.794Z,100053.81
2022-12-08T01:50:31.712Z,100050.81
2022-12-08T01:51:38.576Z,100048.19
2022-12-08T01:52:43.969Z,100052.63
2022-12-08T01:53:47.082Z,100042.91
2022-12-08T01:54:54.515Z,100047.19
2022-12-08T01:56:01.599Z,100049.03
2022-12-08T01:57:08.023Z,100054.28
2022-12-08T01:58:16.953Z,100051.66
2022-12-08T01:59:19.506Z,100054.47
2022-12-08T02:00:27.246Z,100053.63
2022-12-08T02:01:29.754Z,100058.25
2022-12-08T02:02:41.160Z,100049.84
2022-12-08T02:03:47.616Z,100052.66
2022-12-08T02:04:50.940Z,100054.78
2022-12-08T02:05:53.514Z,100054.28
2022-12-08T02:07:02.447Z,100054.81
2022-12-08T02:08:10.070Z,100057.94
2022-12-08T02:09:12.742Z,100058.28
2022-12-08T02:10:20.156Z,100052.69
2022-12-08T02:11:22.509Z,100054.66
2022-12-08T02:12:25.924Z,100054.00
2022-12-08T02:13:28.371Z,100053.50
2022-12-08T02:14:32.289Z,100045.75
2022-12-08T02:15:44.120Z,100058.44
2022-12-08T02:16:52.990Z,100045.59
2022-12-08T02:18:08.561Z,100045.94
2022-12-08T02:19:46.616Z,100041.13
2022-12-08T02:20:56.653Z,100042.97
2022-12-08T02:22:06.152Z,100039.66
2022-12-08T02:23:18.331Z,100034.38
2022-12-08T02:24:29.124Z,100038.81
2022-12-08T02:25:35.862Z,100035.22
2022-12-08T02:27:12.493Z,100023.03
2022-12-08T02:28:39.236Z,100032.59
2022-12-08T02:30:07.187Z,100030.75
2022-12-08T02:31:23.680Z,100046.72
2022-12-08T02:32:57.228Z,100033.38
2022-12-08T02:34:13.677Z,100029.63
2022-12-08T02:35:23.537Z,100022.50
2022-12-08T02:36:31.168Z,100022.50
2022-12-08T02:37:39.393Z,100024.00
2022-12-08T02:38:52.783Z,100021.38
2022-12-08T02:40:02.607Z,100028.28
2022-12-08T02:41:18.568Z,100015.13
2022-12-08T02:42:28.080Z,100009.34
2022-12-08T02:43:36.468Z,100007.72
2022-12-08T02:44:44.969Z,100013.81
2022-12-08T02:45:52.456Z,100013.63
2022-12-08T02:46:59.398Z,100016.09
2022-12-08T02:48:02.623Z,100012.50
2022-12-08T02:49:07.112Z,100011.50
2022-12-08T02:50:11.590Z,100012.16
2022-12-08T02:51:13.728Z,100007.69
2022-12-08T02:52:45.550Z,100006.56
2022-12-08T02:53:48.787Z,100008.03
2022-12-08T02:54:56.433Z,99998.50
2022-12-08T02:56:16.647Z,100011.16
2022-12-08T02:57:35.150Z,100009.19
2022-12-08T02:58:52.762Z,100001.94
2022-12-08T03:00:06.430Z,100008.84
2022-12-08T03:01:37.164Z,100001.59
2022-12-08T03:02:50.183Z,100000.63
2022-12-08T03:04:04.373Z,99996.16
2022-12-08T03:05:20.511Z,100000.44
2022-12-08T03:06:30.628Z,99997.66
2022-12-08T03:07:39.005Z,99995.97
2022-12-08T03:08:52.633Z,99994.84
2022-12-08T03:09:59.901Z,99995.66
2022-12-08T03:11:09.621Z,99994.66
2022-12-08T03:12:18.942Z,99990.06
2022-12-08T03:13:26.083Z,99996.13
2022-12-08T03:14:31.792Z,99998.63
2022-12-08T03:15:37.461Z,99990.72
2022-12-08T03:16:44.439Z,99989.72
2022-12-08T03:17:50.995Z,99988.88
2022-12-08T03:18:57.683Z,99993.34
2022-12-08T03:20:08.846Z,99985.28
2022-12-08T03:21:14.890Z,99990.56
2022-12-08T03:22:23.238Z,99989.53
2022-12-08T03:23:26.802Z,99986.91
2022-12-08T03:24:32.696Z,99983.44
2022-12-08T03:25:41.228Z,99981.63
2022-12-08T03:26:51.025Z,99986.91
2022-12-08T03:27:54.196Z,99983.28
2022-12-08T03:28:57.839Z,99972.72
2022-12-08T03:30:01.345Z,99966.31
2022-12-08T03:31:10.633Z,99964.69
2022-12-08T03:32:21.025Z,99963.00
2022-12-08T03:33:27.503Z,99963.00
2022-12-08T03:34:30.452Z,99996.31
2022-12-08T03:35:36.781Z,99973.38
2022-12-08T03:36:40.373Z,99969.94
2022-12-08T03:37:44.358Z,99970.75
2022-12-08T03:38:47.146Z,99980.50
2022-12-08T03:39:50.675Z,99969.94
2022-12-08T03:41:07.725Z,99972.59
2022-12-08T03:42:11.015Z,99972.09
2022-12-08T03:43:13.213Z,99963.69
2022-12-08T03:44:16.378Z,99952.16
2022-12-08T03:45:18.878Z,99966.97
2022-12-08T03:47:25.284Z,99964.16
2022-12-08T03:48:28.469Z,99967.63
2022-12-08T03:49:30.853Z,99963.16
2022-12-08T03:50:34.223Z,99967.63
2022-12-08T03:51:36.571Z,99970.09
2022-12-08T03:52:41.310Z,99957.72
2022-12-08T03:53:43.865Z,99967.28
2022-12-08T03:54:47.073Z,99964.66
2022-12-08T03:55:49.503Z,99967.28
2022-12-08T03:56:52.841Z,99966.28
2022-12-08T03:57:55.033Z,99961.00
2022-12-08T03:58:58.937Z,99968.91
2022-12-08T04:00:01.294Z,99968.09
2022-12-08T04:01:04.521Z,99966.28
2022-12-08T04:02:07.778Z,99964.47
2022-12-08T04:03:10.352Z,99955.56
2022-12-08T04:04:13.654Z,99953.75
2022-12-08T04:05:15.955Z,99959.88
2022-12-08T04:06:19.447Z,99959.03
2022-12-08T04:07:22.666Z,99959.03
2022-12-08T04:08:26.326Z,99958.03
2022-12-08T04:09:29.548Z,99956.41
2022-12-08T04:10:31.805Z,99957.22
2022-12-08T04:11:35.028Z,99951.13
2022-12-08T04:12:37.272Z,99949.50
2022-12-08T04:13:42.109Z,99957.41
2022-12-08T04:14:45.235Z,99952.13
2022-12-08T04:15:48.683Z,99946.03
2022-12-08T04:16:51.851Z,99955.72
2022-12-08T04:17:54.043Z,99942.56
2022-12-08T04:18:57.273Z,99952.25
2022-12-08T04:19:59.403Z,99945.19
2022-12-08T04:21:03.198Z,99942.56
2022-12-08T04:22:06.385Z,99936.31
2022-12-08T04:23:11.065Z,99940.75
2022-12-08T04:24:16.934Z,99945.00
2022-12-08T04:25:19.144Z,99938.94
2022-12-08T04:26:22.243Z,99935.31
2022-12-08T04:27:24.444Z,99936.31
2022-12-08T04:28:29.405Z,99938.94
2022-12-08T04:29:32.602Z,99947.66
2022-12-08T04:30:36.142Z,99934.63
2022-12-08T04:31:39.271Z,99944.22
2022-12-08T04:32:47.101Z,99931.16
2022-12-08T04:33:50.659Z,99936.44
2022-12-08T04:34:52.768Z,99933.66
2022-12-08T04:35:55.938Z,99930.38
2022-12-08T04:36:58.095Z,99930.38
2022-12-08T04:38:01.407Z,99927.75
2022-12-08T04:39:03.783Z,99932.53
2022-12-08T04:40:09.604Z,99932.34
2022-12-08T04:41:11.801Z,99929.06
2022-12-08T04:42:14.972Z,99934.16
2022-12-08T04:43:17.135Z,99927.25
2022-12-08T04:44:20.324Z,99936.31
2022-12-08T04:45:22.514Z,99931.03
2022-12-08T04:46:25.729Z,99924.97
2022-12-08T04:47:28.002Z,99912.75
2022-12-08T04:48:31.208Z,99917.22
2022-12-08T04:49:34.438Z,99918.03
2022-12-08T04:50:38.927Z,99923.28
2022-12-08T04:51:42.126Z,99924.31
2022-12-08T04:52:44.356Z,99922.50
2022-12-08T04:53:48.709Z,99924.13
2022-12-08T04:54:50.889Z,99922.50
2022-12-08T04:55:56.069Z,99918.03
2022-12-08T04:56:58.203Z,99914.59
2022-12-08T04:58:01.499Z,99917.22
2022-12-08T04:59:03.825Z,99917.22
2022-12-08T05:00:08.829Z,99911.94
2022-12-08T05:01:11.216Z,99921.66
2022-12-08T05:02:14.837Z,99914.59
2022-12-08T05:03:22.526Z,99909.13
2022-12-08T05:04:29.037Z,99924.13
2022-12-08T05:05:32.223Z,99913.59
2022-12-08T05:06:34.425Z,99916.22
2022-12-08T05:07:37.693Z,99919.84
2022-12-08T05:08:41.040Z,99912.75
2022-12-08T05:09:43.279Z,99917.22
2022-12-08T05:10:46.443Z,99914.59
2022-12-08T05:11:49.976Z,99917.22
2022-12-08T05:12:53.170Z,99917.22
2022-12-08T05:13:55.340Z,99914.72
2022-12-08T05:14:58.592Z,99912.94
2022-12-08T05:16:06.426Z,99913.09
2022-12-08T05:17:09.862Z,99914.91
2022-12-08T05:18:13.458Z,99906.38
2022-12-08T05:19:16.308Z,99909.97
2022-12-08T05:20:19.665Z,99906.69
2022-12-08T05:21:21.778Z,99901.41
2022-12-08T05:22:24.948Z,99901.59
2022-12-08T05:23:27.458Z,99905.22
2022-12-08T05:24:30.632Z,99904.38
2022-12-08T05:25:32.822Z,99904.56
2022-12-08T05:26:35.941Z,99905.41
2022-12-08T05:27:40.480Z,99909.84
2022-12-08T05:28:43.733Z,99915.94
2022-12-08T05:29:48.381Z,99916.09
2022-12-08T05:30:50.588Z,99904.72
2022-12-08T05:31:53.809Z,99905.75
2022-12-08T05:32:56.181Z,99916.41
2022-12-08T05:34:02.959Z,99914.78
2022-12-08T05:35:06.966Z,99923.69
2022-12-08T05:36:10.934Z,99927.13
2022-12-08T05:37:13.362Z,99922.03
2022-12-08T05:38:16.528Z,99924.84
2022-12-08T05:39:18.939Z,99924.84
2022-12-08T05:40:22.253Z,99926.66
2022-12-08T05:41:25.064Z,99935.56
2022-12-08T05:42:28.270Z,99921.56
2022-12-08T05:43:31.788Z,99922.38
2022-12-08T05:44:34.993Z,99926.66
2022-12-08T05:45:37.282Z,99934.56
2022-12-08T05:46:40.529Z,99934.56
2022-12-08T05:47:42.747Z,99938.03
2022-12-08T05:48:45.931Z,99943.28
2022-12-08T05:49:48.075Z,99946.75
2022-12-08T05:50:52.371Z,99942.31
2022-12-08T05:51:54.541Z,99939.69
2022-12-08T05:52:57.737Z,99938.69
2022-12-08T05:54:00.262Z,99939.50
2022-12-08T05:55:03.504Z,99940.31
2022-12-08T05:56:06.003Z,99941.16
2022-12-08T05:57:09.459Z,99935.88
2022-12-08T05:58:14.146Z,99944.78
2022-12-08T05:59:18.690Z,99943.94
2022-12-08T06:00:21.898Z,99938.69
2022-12-08T06:01:27.488Z,99943.94
2022-12-08T06:02:29.761Z,99939.69
2022-12-08T06:03:33.130Z,99933.44
2022-12-08T06:04:35.968Z,99942.31
2022-12-08T06:05:39.638Z,99942.31
2022-12-08T06:06:41.835Z,99937.06
2022-12-08T06:07:45.109Z,99942.31
2022-12-08T06:08:47.325Z,99926.03
2022-12-08T06:09:50.538Z,99928.31
2022-12-08T06:10:52.787Z,99934.56
2022-12-08T06:11:56.056Z,99935.38
2022-12-08T06:12:58.443Z,99939.03
2022-12-08T06:14:01.920Z,99935.72
2022-12-08T06:15:06.311Z,99934.72
2022-12-08T06:16:09.543Z,99926.81
2022-12-08T06:17:12.717Z,99933.09
2022-12-08T06:18:14.881Z,99932.25
2022-12-08T06:19:18.049Z,99923.56
2022-12-08T06:20:20.214Z,99934.91
2022-12-08T06:21:23.541Z,99940.50
2022-12-08T06:22:26.728Z,99944.47
2022-12-08T06:23:28.950Z,99940.00
2022-12-08T06:24:32.114Z,99941.66
2022-12-08T06:25:34.263Z,99946.75
2022-12-08T06:26:37.424Z,99940.81
2022-12-08T06:27:40.578Z,99946.75
2022-12-08T06:28:43.503Z,99946.75
2022-12-08T06:29:46.716Z,99961.75
2022-12-08T06:30:50.294Z,99947.59
2022-12-08T06:31:53.540Z,99951.03
2022-12-08T06:32:55.750Z,99953.66
2022-12-08T06:33:58.904Z,99948.38
2022-12-08T06:35:01.103Z,99952.88
2022-12-08T06:36:04.691Z,99949.22
2022-12-08T06:37:07.880Z,99953.66
2022-12-08T06:38:10.044Z,99956.28
2022-12-08T06:39:13.167Z,99952.69
2022-12-08T06:40:15.428Z,99953.50
2022-12-08T06:41:18.831Z,99951.69
2022-12-08T06:42:39.643Z,99963.88
2022-12-08T06:43:43.467Z,99968.34
2022-12-08T06:44:45.728Z,99952.19
2022-12-08T06:45:48.998Z,99957.63
2022-12-08T06:46:52.601Z,99958.44
2022-12-08T06:47:55.844Z,99955.81
2022-12-08T06:48:59.627Z,99957.44
2022-12-08T06:50:02.114Z,99955.00
2022-12-08T06:51:10.205Z,99963.72
2022-12-08T06:52:12.347Z,99943.97
2022-12-08T06:53:16.888Z,99961.09
2022-12-08T06:54:20.129Z,99957.78
2022-12-08T06:55:50.823Z,99958.44
2022-12-08T06:56:46.083Z,99955.94
2022-12-08T06:57:51.220Z,99951.69
2022-12-08T06:58:57.499Z,99960.59
2022-12-08T06:59:59.707Z,99956.13
2022-12-08T07:01:07.160Z,99954.50
2022-12-08T07:02:11.586Z,99955.50
2022-12-08T07:03:14.947Z,99960.59
2022-12-08T07:04:18.147Z,99963.41
2022-12-08T07:05:20.350Z,99956.47
2022-12-08T07:06:25.632Z,99958.13
2022-12-08T07:07:27.872Z,99957.13
2022-12-08T07:08:31.269Z,99957.13
2022-12-08T07:09:34.491Z,99955.50
2022-12-08T07:10:37.009Z,99966.03
2022-12-08T07:11:41.029Z,99956.28
2022-12-08T07:12:43.234Z,99952.88
2022-12-08T07:13:48.957Z,99964.19
2022-12-08T07:14:52.142Z,99962.41
2022-12-08T07:15:54.394Z,99957.13
2022-12-08T07:16:57.648Z,99959.59
2022-12-08T07:18:01.282Z,99959.75
2022-12-08T07:19:04.527Z,99966.66
2022-12-08T07:20:08.040Z,99966.66
2022-12-08T07:21:13.157Z,99955.31
2022-12-08T07:22:16.605Z,99954.66
2022-12-08T07:23:19.787Z,99955.63
2022-12-08T07:24:23.146Z,99950.53
2022-12-08T07:25:26.359Z,99957.66
2022-12-08T07:26:29.559Z,99960.44
2022-12-08T07:27:31.722Z,99955.31
2022-12-08T07:28:36.026Z,99951.88
2022-12-08T07:29:38.595Z,99960.44
2022-12-08T07:30:42.057Z,99957.94
2022-12-08T07:31:44.340Z,99960.59
2022-12-08T07:32:47.586Z,99958.78
2022-12-08T07:33:53.103Z,99962.41
2022-12-08T07:34:56.272Z,99955.31
2022-12-08T07:36:01.321Z,99953.69
2022-12-08T07:37:04.702Z,99952.22
2022-12-08T07:38:11.974Z,99960.44
2022-12-08T07:39:14.136Z,99955.19
2022-12-08T07:40:17.924Z,99955.97
2022-12-08T07:41:23.487Z,99962.09
2022-12-08T07:42:27.089Z,99955.81
2022-12-08T07:43:30.225Z,99961.06
2022-12-08T07:44:32.505Z,99960.09
2022-12-08T07:45:35.647Z,99960.91
2022-12-08T07:46:38.872Z,99962.75
2022-12-08T07:47:41.119Z,99956.28
2022-12-08T07:48:44.476Z,99952.69
2022-12-08T07:49:48.057Z,99960.59
2022-12-08T07:50:51.231Z,99943.31
2022-12-08T07:51:54.373Z,99958.75
2022-12-08T07:52:56.532Z,99963.22
2022-12-08T07:53:59.717Z,99959.75
2022-12-08T07:55:03.041Z,99962.41
2022-12-08T07:56:08.107Z,99962.56
2022-12-08T07:57:10.440Z,99962.75
2022-12-08T07:58:13.652Z,99963.72
2022-12-08T07:59:16.812Z,99968.97
2022-12-08T08:00:19.903Z,99971.63
2022-12-08T08:01:25.810Z,99970.66
2022-12-08T08:02:28.228Z,99975.09
2022-12-08T08:03:31.535Z,99965.38
2022-12-08T08:04:34.795Z,99968.66
2022-12-08T08:05:39.668Z,99972.63
2022-12-08T08:06:42.956Z,99975.75
2022-12-08T08:07:48.308Z,99971.78
2022-12-08T08:08:51.524Z,99971.44
2022-12-08T08:09:53.709Z,99975.09
2022-12-08T08:10:56.874Z,99969.81
2022-12-08T08:12:29.114Z,99983.66
2022-12-08T08:13:23.322Z,99976.59
2022-12-08T08:14:25.658Z,99975.56
2022-12-08T08:15:29.029Z,99972.28
2022-12-08T08:16:37.929Z,99976.41
2022-12-08T08:17:41.854Z,99973.78
2022-12-08T08:18:44.051Z,99979.84
2022-12-08T08:19:47.452Z,99974.56
2022-12-08T08:20:52.412Z,99975.25
2022-12-08T08:21:54.727Z,99987.59
2022-12-08T08:22:57.915Z,99978.88
2022-12-08T08:24:00.088Z,99978.88
2022-12-08T08:25:03.255Z,99988.41
2022-12-08T08:26:07.009Z,99982.47
2022-12-08T08:27:09.091Z,99979.03
2022-12-08T08:28:16.014Z,99984.16
2022-12-08T08:29:19.188Z,99973.59
2022-12-08T08:30:21.475Z,99981.50
2022-12-08T08:31:26.017Z,99980.50
2022-12-08T08:32:28.281Z,99984.81
2022-12-08T08:33:31.502Z,99978.53
2022-12-08T08:34:34.702Z,100005.72
2022-12-08T08:35:37.860Z,99988.06
2022-12-08T08:36:42.442Z,99987.09
2022-12-08T08:37:48.921Z,99988.56
2022-12-08T08:38:53.511Z,99983.97
2022-12-08T08:39:56.548Z,99994.31
2022-12-08T08:41:01.331Z,99979.53
2022-12-08T08:42:04.716Z,99985.44
2022-12-08T08:43:07.125Z,99983.78
2022-12-08T08:44:10.301Z,99990.06
2022-12-08T08:45:13.496Z,99993.66
2022-12-08T08:46:15.709Z,99989.41
2022-12-08T08:47:19.039Z,100007.84
2022-12-08T08:48:21.145Z,99992.38
2022-12-08T08:49:24.274Z,99995.97
2022-12-08T08:50:29.501Z,99987.44
2022-12-08T08:51:35.068Z,99993.69
2022-12-08T08:52:39.637Z,99990.56
2022-12-08T08:53:42.413Z,99977.91
2022-12-08T08:54:45.574Z,99990.06
2022-12-08T08:55:49.153Z,99995.50
2022-12-08T08:56:52.691Z,99995.69
2022-12-08T08:57:54.886Z,99992.53
2022-12-08T08:58:58.078Z,99995.34
2022-12-08T09:00:00.373Z,99992.88
2022-12-08T09:01:03.590Z,99997.50
2022-12-08T09:02:06.870Z,99996.03
2022-12-08T09:03:09.149Z,99983.81
2022-12-08T09:04:12.349Z,99999.00
2022-12-08T09:05:14.484Z,99999.13
2022-12-08T09:06:19.268Z,99992.41
2022-12-08T09:07:22.634Z,100001.44
2022-12-08T09:08:26.310Z,100007.72
2022-12-08T09:09:29.508Z,100000.16
2022-12-08T09:10:31.667Z,100002.94
2022-12-08T09:11:34.874Z,100002.28
2022-12-08T09:12:37.017Z,100003.28
2022-12-08T09:13:40.401Z,100004.25
2022-12-08T09:14:43.628Z,99997.34
2022-12-08T09:15:45.888Z,100000.94
2022-12-08T09:16:49.160Z,99999.47
2022-12-08T09:17:51.403Z,99998.81
2022-12-08T09:18:54.831Z,100001.63
2022-12-08T09:19:58.026Z,100006.22
2022-12-08T09:21:06.321Z,100000.28
2022-12-08T09:22:09.533Z,100003.91
2022-12-08T09:23:12.763Z,99997.03
2022-12-08T09:24:16.532Z,100003.09
2022-12-08T09:25:19.668Z,99996.03
2022-12-08T09:26:22.608Z,99998.66
2022-12-08T09:27:25.940Z,99997.66
2022-12-08T09:28:28.058Z,99993.38
2022-12-08T09:29:35.998Z,100000.13
2022-12-08T09:30:38.724Z,100001.78
2022-12-08T09:31:42.372Z,100006.88
2022-12-08T09:32:44.639Z,100001.44
2022-12-08T09:33:48.592Z,100009.19
2022-12-08T09:34:52.355Z,100009.03
2022-12-08T09:35:54.684Z,99976.75
2022-12-08T09:36:57.863Z,100014.78
2022-12-08T09:38:00.038Z,100010.34
2022-12-08T09:39:03.234Z,100010.00
2022-12-08T09:40:09.665Z,100012.47
2022-12-08T09:41:17.820Z,100018.41
2022-12-08T09:42:32.994Z,100016.63
2022-12-08T09:43:48.205Z,100017.91
2022-12-08T09:44:59.852Z,100023.84
2022-12-08T09:46:06.205Z,100005.91
2022-12-08T09:47:16.201Z,100013.63
2022-12-08T09:48:24.385Z,100020.22
2022-12-08T09:49:38.188Z,100018.09
2022-12-08T09:50:47.823Z,100006.06
2022-12-08T09:51:50.084Z,100029.59
2022-12-08T09:53:01.500Z,100020.56
2022-12-08T09:54:09.732Z,100020.56
2022-12-08T09:55:26.709Z,100019.56
2022-12-08T09:56:32.989Z,99985.97
2022-12-08T09:57:36.677Z,100020.56
2022-12-08T09:58:51.914Z,100019.06
2022-12-08T09:59:59.175Z,100025.31
2022-12-08T10:01:02.418Z,100009.19
2022-12-08T10:02:20.275Z,100026.63
2022-12-08T10:03:28.234Z,100024.16
2022-12-08T10:04:32.646Z,100028.63
2022-12-08T10:05:42.709Z,100037.50
2022-12-08T10:06:53.388Z,100022.69
2022-12-08T10:08:02.468Z,100021.88
2022-12-08T10:09:22.612Z,100020.22
2022-12-08T10:10:39.197Z,100023.66
2022-12-08T10:11:51.478Z,100029.59
2022-12-08T10:13:00.531Z,100029.28
2022-12-08T10:14:17.247Z,100022.03
2022-12-08T10:15:41.546Z,100025.00
2022-12-08T10:16:48.798Z,100021.03
2022-12-08T10:17:53.248Z,100026.97
2022-12-08T10:19:11.286Z,100002.28
2022-12-08T10:20:16.695Z,100010.34
2022-12-08T10:21:22.959Z,100029.75
2022-12-08T10:22:28.127Z,100036.03
2022-12-08T10:23:38.611Z,100034.41
2022-12-08T10:24:49.033Z,100030.91
2022-12-08T10:25:59.310Z,100028.63
2022-12-08T10:27:03.369Z,100032.22
2022-12-08T10:28:05.610Z,100028.63
2022-12-08T10:29:13.545Z,100037.19
2022-12-08T10:30:19.762Z,100029.91
2022-12-08T10:31:24.643Z,100034.22
2022-12-08T10:32:34.974Z,100030.75
2022-12-08T10:33:38.118Z,100040.16
2022-12-08T10:35:03.627Z,100031.25
2022-12-08T10:36:07.351Z,100031.91
2022-12-08T10:37:11.306Z,100030.06
2022-12-08T10:38:18.380Z,100027.31
2022-12-08T10:39:32.990Z,100028.09
2022-12-08T10:40:42.337Z,100035.84
2022-12-08T10:41:52.566Z,100031.41
2022-12-08T10:42:58.675Z,100034.53
2022-12-08T10:44:02.059Z,100037.50
2022-12-08T10:45:23.244Z,100038.31
2022-12-08T10:46:29.046Z,100035.66
2022-12-08T10:47:36.932Z,100054.97
2022-12-08T10:48:49.975Z,100043.28
2022-12-08T10:50:10.396Z,100034.53
2022-12-08T10:51:24.111Z,100029.09
2022-12-08T10:52:27.297Z,100036.00
2022-12-08T10:53:32.185Z,100040.47
2022-12-08T10:54:37.319Z,100042.09
2022-12-08T10:55:45.841Z,100040.47
2022-12-08T10:56:55.665Z,100026.63
2022-12-08T10:57:58.832Z,100042.75
2022-12-08T10:59:18.032Z,100035.34
2022-12-08T11:00:22.506Z,100038.47
2022-12-08T11:01:28.078Z,100054.97
2022-12-08T11:02:30.485Z,100023.94
2022-12-08T11:03:36.712Z,100035.16
2022-12-08T11:04:39.465Z,100035.16
2022-12-08T11:05:43.609Z,100031.22
2022-12-08T11:06:47.832Z,100034.19
2022-12-08T11:07:52.965Z,100023.97
2022-12-08T11:08:58.438Z,100028.06
2022-12-08T11:10:00.966Z,100035.16
2022-12-08T11:11:04.182Z,100038.63
2022-12-08T11:12:15.472Z,100036.00
2022-12-08T11:13:23.024Z,100037.63
2022-12-08T11:14:28.878Z,100033.03
2022-12-08T11:15:37.165Z,100041.25
2022-12-08T11:16:43.591Z,100038.63
2022-12-08T11:17:57.439Z,100042.09
2022-12-08T11:19:07.314Z,100044.88
2022-12-08T11:20:21.100Z,100043.38
2022-12-08T11:21:36.776Z,100040.41
2022-12-08T11:22:41.634Z,100041.06
2022-12-08T11:23:48.892Z,100040.72
2022-12-08T11:24:57.729Z,100038.25
2022-12-08T11:26:09.070Z,100034.78
2022-12-08T11:27:13.734Z,100034.63
2022-12-08T11:28:21.521Z,100039.38
2022-12-08T11:29:24.737Z,100043.69
2022-12-08T11:30:31.624Z,100043.34
2022-12-08T11:31:40.933Z,100031.13
2022-12-08T11:32:44.899Z,100041.19
2022-12-08T11:33:49.870Z,100032.25
2022-12-08T11:34:55.986Z,100031.44
2022-12-08T11:36:03.541Z,100036.09
2022-12-08T11:37:11.197Z,100037.06
2022-12-08T11:38:23.896Z,100037.88
2022-12-08T11:39:30.552Z,100033.75
2022-12-08T11:40:37.425Z,100044.31
2022-12-08T11:41:45.916Z,100037.41
2022-12-08T11:42:59.159Z,100035.78
2022-12-08T11:44:12.273Z,100038.22
2022-12-08T11:45:27.705Z,100031.94
2022-12-08T11:46:36.787Z,100034.41
2022-12-08T11:47:48.979Z,100035.91
2022-12-08T11:49:05.971Z,100033.09
2022-12-08T11:50:21.157Z,100030.28
2022-12-08T11:51:32.045Z,100028.31
2022-12-08T11:52:45.277Z,100027.13
2022-12-08T11:54:00.730Z,100028.78
2022-12-08T11:55:35.271Z,100026.78
2022-12-08T11:56:45.878Z,100019.69
2022-12-08T11:57:51.842Z,100028.44
2022-12-08T11:58:59.601Z,100029.09
2022-12-08T12:00:04.063Z,100021.19
2022-12-08T12:01:21.172Z,100021.97
2022-12-08T12:02:27.764Z,100023.47
2022-12-08T12:03:36.705Z,100025.09
2022-12-08T12:04:44.876Z,100033.19
2022-12-08T12:07:48.849Z,100026.16
2022-12-08T12:09:01.793Z,100035.03
2022-12-08T12:10:26.352Z,100032.75
2022-12-08T12:11:55.408Z,100026.16
2022-12-08T12:13:11.102Z,100039.53
2022-12-08T12:14:31.963Z,100030.16
2022-12-08T12:15:48.080Z,100036.56
2022-12-08T12:17:02.340Z,100030.81
2022-12-08T12:18:16.552Z,100025.56
2022-12-08T12:19:22.990Z,100039.06
2022-12-08T12:20:29.938Z,100037.44
2022-12-08T12:21:36.931Z,100016.19
2022-12-08T12:22:39.886Z,100034.31
2022-12-08T12:23:47.750Z,100039.75
2022-12-08T12:24:52.955Z,100032.00
2022-12-08T12:26:00.449Z,100036.63
2022-12-08T12:27:08.292Z,100034.81
2022-12-08T12:28:15.316Z,100036.13
2022-12-08T12:29:21.184Z,100040.75
2022-12-08T12:30:27.150Z,100041.75
2022-12-08T12:31:33.342Z,100041.94
2022-12-08T12:32:48.210Z,100038.63
2022-12-08T12:33:52.940Z,100031.06
2022-12-08T12:35:02.284Z,100037.13
2022-12-08T12:36:08.751Z,100038.97
2022-12-08T12:37:14.534Z,100035.50
2022-12-08T12:38:42.917Z,100039.78
2022-12-08T12:39:50.977Z,100046.53
2022-12-08T12:41:00.089Z,100035.50
2022-12-08T12:42:05.495Z,100050.31
2022-12-08T12:43:31.901Z,100048.97
2022-12-08T12:44:43.380Z,100039.94
2022-12-08T12:45:46.945Z,100046.50
2022-12-08T12:46:59.376Z,100045.34